createdAt,value
2022-08-30T00:04:41.681Z,18.20
2022-08-30T00:09:50.536Z,17.60
2022-08-30T00:15:18.146Z,17.50
2022-08-30T00:20:26.231Z,17.20
2022-08-30T00:25:32.262Z,17.20
2022-08-30T00:30:39.047Z,17.20
2022-08-30T00:35:54.902Z,17.30
2022-08-30T00:41:04.443Z,17.00
2022-08-30T00:46:10.615Z,17.40
2022-08-30T00:51:15.102Z,17.10
2022-08-30T00:56:24.048Z,16.90
2022-08-30T01:01:39.590Z,16.80
2022-08-30T01:06:43.722Z,17.20
2022-08-30T01:11:57.472Z,16.50
2022-08-30T01:17:04.537Z,16.40
2022-08-30T01:22:14.191Z,16.50
2022-08-30T01:27:22.260Z,16.30
2022-08-30T01:32:29.720Z,16.40
2022-08-30T01:37:37.309Z,16.20
2022-08-30T01:42:44.769Z,16.20
2022-08-30T01:48:03.762Z,16.20
2022-08-30T01:53:33.055Z,16.10
2022-08-30T01:58:39.253Z,16.10
2022-08-30T02:03:47.263Z,16.70
2022-08-30T02:08:53.206Z,16.00
2022-08-30T02:14:09.150Z,16.00
2022-08-30T02:19:22.469Z,16.40
2022-08-30T02:24:35.981Z,15.80
2022-08-30T02:29:41.294Z,15.80
2022-08-30T02:34:46.337Z,15.80
2022-08-30T02:39:50.565Z,15.80
2022-08-30T02:44:58.984Z,15.50
2022-08-30T02:50:09.584Z,15.40
2022-08-30T02:55:15.654Z,15.50
2022-08-30T03:00:28.114Z,15.30
2022-08-30T03:05:37.929Z,15.20
2022-08-30T03:10:49.640Z,15.20
2022-08-30T03:15:55.264Z,15.10
2022-08-30T03:21:02.681Z,15.20
2022-08-30T03:26:09.780Z,15.20
2022-08-30T03:31:21.826Z,15.10
2022-08-30T03:36:29.654Z,15.20
2022-08-30T03:41:36.559Z,15.40
2022-08-30T03:46:43.089Z,15.40
2022-08-30T03:52:08.180Z,15.30
2022-08-30T03:57:19.853Z,15.30
2022-08-30T04:02:32.281Z,15.20
2022-08-30T04:07:43.974Z,15.20
2022-08-30T04:12:52.017Z,15.60
2022-08-30T04:18:09.445Z,14.80
2022-08-30T04:23:17.413Z,15.70
2022-08-30T04:28:34.668Z,14.70
2022-08-30T04:33:46.922Z,15.00
2022-08-30T04:39:03.157Z,15.00
2022-08-30T04:44:18.629Z,15.80
2022-08-30T04:49:30.287Z,16.00
2022-08-30T04:54:37.974Z,14.70
2022-08-30T04:59:52.102Z,15.60
2022-08-30T05:05:14.936Z,14.90
2022-08-30T05:10:21.810Z,15.00
2022-08-30T05:15:42.573Z,15.30
2022-08-30T05:21:04.241Z,15.00
2022-08-30T05:26:12.335Z,15.10
2022-08-30T05:31:17.350Z,15.50
2022-08-30T05:36:23.784Z,15.50
2022-08-30T05:41:29.990Z,15.60
2022-08-30T05:46:46.655Z,15.80
2022-08-30T05:51:51.821Z,16.10
2022-08-30T05:56:57.001Z,16.20
2022-08-30T06:02:02.972Z,16.40
2022-08-30T06:07:10.550Z,16.20
2022-08-30T06:12:16.825Z,16.40
2022-08-30T06:17:20.689Z,16.50
2022-08-30T06:22:26.352Z,16.70
2022-08-30T06:27:43.685Z,16.80
2022-08-30T06:32:47.464Z,17.20
2022-08-30T06:37:57.987Z,17.30
2022-08-30T06:43:03.928Z,17.60
2022-08-30T06:48:10.572Z,17.80
2022-08-30T06:53:16.428Z,18.00
2022-08-30T06:58:20.324Z,18.60
2022-08-30T07:03:27.719Z,18.40
2022-08-30T07:08:33.105Z,18.60
2022-08-30T07:13:38.192Z,18.40
2022-08-30T07:18:55.352Z,19.40
2022-08-30T07:24:01.346Z,19.90
2022-08-30T07:29:05.298Z,20.20
2022-08-30T07:34:11.483Z,20.60
2022-08-30T07:39:16.847Z,20.80
2022-08-30T07:44:20.620Z,21.20
2022-08-30T07:49:28.425Z,21.30
2022-08-30T07:54:36.269Z,21.70
2022-08-30T07:59:41.969Z,22.00
2022-08-30T08:04:46.759Z,23.30
2022-08-30T08:09:51.708Z,23.20
2022-08-30T08:14:58.602Z,23.80
2022-08-30T08:20:02.355Z,24.40
2022-08-30T08:25:11.061Z,25.20
2022-08-30T08:30:17.498Z,25.40
2022-08-30T08:35:21.216Z,25.30
2022-08-30T08:40:34.980Z,26.10
2022-08-30T08:45:45.366Z,26.40
2022-08-30T08:51:05.518Z,26.60
2022-08-30T08:56:13.261Z,26.60
2022-08-30T09:01:22.603Z,27.10
2022-08-30T09:06:41.789Z,27.40
2022-08-30T09:11:51.477Z,27.80
2022-08-30T09:17:03.936Z,27.70
2022-08-30T09:22:15.189Z,28.40
2022-08-30T09:27:24.133Z,28.40
2022-08-30T09:32:35.356Z,28.60
2022-08-30T09:37:41.005Z,29.30
2022-08-30T09:42:59.718Z,29.60
2022-08-30T09:48:30.112Z,29.80
2022-08-30T09:53:36.288Z,30.70
2022-08-30T09:58:51.319Z,31.10
2022-08-30T10:03:58.257Z,30.70
2022-08-30T10:09:08.954Z,30.90
2022-08-30T10:14:30.384Z,31.80
2022-08-30T10:19:44.144Z,32.00
2022-08-30T10:24:49.543Z,32.70
2022-08-30T10:29:59.551Z,32.50
2022-08-30T10:35:06.737Z,33.50
2022-08-30T10:40:28.136Z,33.90
2022-08-30T10:45:35.697Z,34.40
2022-08-30T10:50:41.826Z,34.10
2022-08-30T10:55:50.085Z,34.50
2022-08-30T11:01:08.789Z,34.20
2022-08-30T11:06:19.898Z,33.90
2022-08-30T11:11:30.985Z,33.90
2022-08-30T11:16:38.157Z,34.10
2022-08-30T11:21:51.070Z,34.50
2022-08-30T11:27:04.980Z,35.60
2022-08-30T11:33:09.370Z,34.90
2022-08-30T11:38:21.169Z,32.90
2022-08-30T11:44:07.304Z,33.90
2022-08-30T11:49:46.113Z,35.10
2022-08-30T11:54:56.184Z,35.20
2022-08-30T12:00:07.509Z,35.50
2022-08-30T12:05:44.457Z,36.80
2022-08-30T12:10:58.213Z,36.80
2022-08-30T12:16:02.230Z,36.50
2022-08-30T12:21:24.608Z,36.20
2022-08-30T12:26:39.291Z,35.90
2022-08-30T12:31:49.567Z,36.40
2022-08-30T12:37:04.790Z,36.70
2022-08-30T12:42:22.590Z,35.60
2022-08-30T12:47:28.146Z,37.60
2022-08-30T12:52:36.858Z,36.60
2022-08-30T12:57:45.810Z,36.50
2022-08-30T13:02:53.756Z,36.80
2022-08-30T13:08:15.360Z,34.70
2022-08-30T13:13:34.398Z,32.20
2022-08-30T13:18:38.396Z,31.40
2022-08-30T13:23:42.568Z,33.10
2022-08-30T13:28:51.896Z,33.00
2022-08-30T13:33:55.738Z,31.90
2022-08-30T13:39:01.158Z,31.50
2022-08-30T13:44:11.612Z,33.50
2022-08-30T13:54:51.111Z,33.20
2022-08-30T13:59:59.765Z,31.60
2022-08-30T14:05:04.082Z,31.30
2022-08-30T14:10:32.021Z,31.20
2022-08-30T14:15:41.808Z,30.70
2022-08-30T14:20:51.281Z,31.40
2022-08-30T14:25:54.956Z,31.00
2022-08-30T14:31:00.019Z,31.20
2022-08-30T14:36:15.376Z,30.80
2022-08-30T14:41:19.447Z,30.70
2022-08-30T14:46:26.833Z,30.30
2022-08-30T14:51:37.110Z,30.30
2022-08-30T14:56:44.404Z,30.60
2022-08-30T15:01:49.471Z,31.50
2022-08-30T15:06:53.218Z,34.20
2022-08-30T15:12:06.986Z,34.50
2022-08-30T15:17:14.239Z,32.80
2022-08-30T15:22:19.275Z,31.60
2022-08-30T15:27:23.951Z,31.20
2022-08-30T15:32:28.926Z,32.60
2022-08-30T15:37:35.475Z,34.40
2022-08-30T15:42:47.555Z,34.10
2022-08-30T15:47:53.247Z,34.60
2022-08-30T15:53:03.216Z,35.90
2022-08-30T15:58:07.198Z,35.40
2022-08-30T16:03:13.187Z,34.90
2022-08-30T16:08:21.107Z,34.80
2022-08-30T16:13:25.180Z,33.30
2022-08-30T16:18:37.572Z,32.80
2022-08-30T16:23:44.781Z,31.70
2022-08-30T16:28:52.120Z,31.90
2022-08-30T16:34:03.707Z,31.60
2022-08-30T16:39:09.448Z,31.00
2022-08-30T16:44:13.887Z,32.00
2022-08-30T16:49:22.520Z,30.70
2022-08-30T16:54:26.030Z,29.90
2022-08-30T16:59:32.936Z,29.70
2022-08-30T17:04:38.315Z,29.30
2022-08-30T17:09:43.395Z,29.00
2022-08-30T17:14:48.886Z,28.40
2022-08-30T17:19:54.409Z,28.20
2022-08-30T17:24:58.192Z,28.50
2022-08-30T17:30:01.717Z,27.30
2022-08-30T17:35:12.939Z,27.60
2022-08-30T17:40:19.741Z,27.40
2022-08-30T17:45:26.658Z,27.30
2022-08-30T17:50:33.552Z,27.20
2022-08-30T17:55:37.220Z,27.10
2022-08-30T18:00:40.985Z,26.90
2022-08-30T18:05:46.909Z,26.70
2022-08-30T18:10:51.272Z,26.00
2022-08-30T18:15:56.270Z,26.50
2022-08-30T18:21:03.845Z,26.20
2022-08-30T18:26:07.576Z,26.30
2022-08-30T18:31:11.849Z,25.60
2022-08-30T18:36:21.127Z,25.00
2022-08-30T18:41:29.934Z,24.50
2022-08-30T18:46:33.673Z,24.10
2022-08-30T18:51:47.549Z,24.10
2022-08-30T18:56:56.802Z,24.10
2022-08-30T19:02:00.239Z,24.00
2022-08-30T19:07:06.596Z,23.80
2022-08-30T19:12:11.615Z,23.60
2022-08-30T19:17:15.931Z,23.50
2022-08-30T19:22:39.846Z,23.60
2022-08-30T19:27:53.497Z,23.50
2022-08-30T19:32:57.804Z,23.50
2022-08-30T19:38:06.044Z,23.30
2022-08-30T19:43:09.981Z,23.20
2022-08-30T19:48:13.499Z,23.10
2022-08-30T19:53:30.626Z,23.00
2022-08-30T19:58:50.006Z,22.90
2022-08-30T20:04:02.562Z,22.90
2022-08-30T20:09:10.578Z,22.70
2022-08-30T20:14:16.980Z,22.70
2022-08-30T20:19:29.276Z,22.50
2022-08-30T20:24:44.007Z,21.40
2022-08-30T20:29:57.100Z,21.80
2022-08-30T20:35:04.559Z,22.60
2022-08-30T20:40:19.491Z,22.40
2022-08-30T20:45:30.723Z,22.60
2022-08-30T20:50:35.702Z,23.60
2022-08-30T20:55:46.587Z,22.40
2022-08-30T21:00:55.826Z,22.10
2022-08-30T21:06:03.047Z,21.90
2022-08-30T21:11:21.397Z,22.90
2022-08-30T21:16:27.664Z,21.70
2022-08-30T21:21:33.142Z,21.90
2022-08-30T21:26:45.953Z,21.80
2022-08-30T21:31:51.864Z,20.70
2022-08-30T21:36:56.612Z,22.50
2022-08-30T21:42:02.941Z,21.60
2022-08-30T21:47:13.455Z,21.60
2022-08-30T21:52:27.920Z,21.80
2022-08-30T21:57:44.934Z,22.60
2022-08-30T22:02:51.432Z,22.50
2022-08-30T22:08:04.359Z,21.70
2022-08-30T22:13:19.127Z,22.00
2022-08-30T22:18:23.939Z,21.80
2022-08-30T22:23:38.666Z,21.50
2022-08-30T22:28:46.139Z,21.40
2022-08-30T22:33:50.588Z,20.90
2022-08-30T22:39:08.404Z,21.50
2022-08-30T22:44:16.160Z,21.30
2022-08-30T22:49:20.031Z,22.30
2022-08-30T22:54:28.270Z,21.30
2022-08-30T22:59:34.013Z,21.10
2022-08-30T23:04:41.603Z,21.20
2022-08-30T23:09:45.448Z,21.00
2022-08-30T23:14:56.653Z,21.20
2022-08-30T23:20:00.485Z,22.20
2022-08-30T23:25:21.735Z,21.00
2022-08-30T23:31:01.673Z,20.50
2022-08-30T23:36:26.491Z,20.50
2022-08-30T23:41:47.512Z,20.60
2022-08-30T23:47:10.608Z,21.00
2022-08-30T23:52:31.661Z,21.10
2022-08-30T23:57:55.190Z,19.70
